Time;durP1;ratioP1;P1;durP2;ratioP2;P2;SDS_P1;SDS_P2;PMS_P1;PMS_P2;Temp;Humidity;BMP_temperature;BMP_pressure;BME280_temperature;BME280_humidity;BME280_pressure;Samples;Min_cycle;Max_cycle;Signal;HPM_P1;HPM_P2
2022/05/05 00:00:50;;;;;;;17.58;8.82;;;;;;;25.16;65.46;98056.44;5094646;28;20490;-67
2022/05/05 00:03:39;;;;;;;33.08;11.95;;;;;;;25.15;65.48;98059.22;5105158;28;20047;-67
2022/05/05 00:06:21;;;;;;;20.42;9.63;;;;;;;25.09;64.43;98057.22;5104542;28;20812;-67
2022/05/05 00:09:16;;;;;;;19.83;9.68;;;;;;;24.99;63.13;98052.03;5104787;28;20039;-67
2022/05/05 00:14:58;;;;;;;25.48;10.07;;;;;;;25.08;67.15;98047.66;5085465;28;20126;-67
2022/05/05 00:17:40;;;;;;;25.33;10.90;;;;;;;25.04;67.21;98043.69;5098256;28;20063;-67
2022/05/05 00:20:29;;;;;;;16.58;10.52;;;;;;;24.96;67.84;98047.06;5085803;28;20056;-66
2022/05/05 00:23:18;;;;;;;25.58;10.85;;;;;;;24.97;68.06;98061.91;5085018;28;20067;-67
2022/05/05 00:26:07;;;;;;;24.15;11.27;;;;;;;24.82;65.87;98059.94;5090779;28;20088;-67
2022/05/05 00:28:49;;;;;;;19.27;10.63;;;;;;;24.86;67.83;98066.53;5105207;28;20130;-66
2022/05/05 00:31:38;;;;;;;21.75;9.85;;;;;;;24.77;67.45;98074.38;5092567;28;20051;-67
2022/05/05 00:34:21;;;;;;;24.40;9.43;;;;;;;24.78;66.40;98086.56;5104222;28;20047;-65
2022/05/05 00:37:16;;;;;;;21.70;9.57;;;;;;;24.77;66.59;98084.91;5101943;28;20051;-66
2022/05/05 00:39:51;;;;;;;19.25;8.75;;;;;;;24.83;69.51;98091.38;5103241;28;20036;-66
2022/05/05 00:42:40;;;;;;;21.25;9.50;;;;;;;24.99;69.32;98090.72;5104589;28;20043;-67
2022/05/05 00:45:29;;;;;;;17.70;9.30;;;;;;;25.03;71.16;98084.19;5085347;28;20732;-67
2022/05/05 00:48:12;;;;;;;25.27;9.43;;;;;;;24.92;68.75;98074.69;5088521;28;20093;-66
2022/05/05 00:51:02;;;;;;;23.85;11.32;;;;;;;25.01;70.69;98072.97;5097888;28;20059;-67
2022/05/05 00:53:58;;;;;;;23.15;9.70;;;;;;;25.02;67.41;98083.34;5099645;28;20608;-67
2022/05/05 00:56:47;;;;;;;21.63;9.00;;;;;;;25.10;70.14;98085.25;5097887;28;20054;-66
2022/05/05 00:59:36;;;;;;;24.17;9.55;;;;;;;25.17;71.55;98091.56;5075440;28;20109;-67
2022/05/05 01:02:25;;;;;;;21.65;9.95;;;;;;;25.24;68.69;98092.59;5103625;27;20092;-67
2022/05/05 01:05:15;;;;;;;23.65;10.00;;;;;;;25.31;71.66;98091.00;5104380;27;20081;-67
2022/05/05 01:07:57;;;;;;;29.35;10.38;;;;;;;25.32;69.89;98100.56;5103122;27;20057;-67
2022/05/05 01:10:47;;;;;;;27.27;8.85;;;;;;;25.15;66.68;98104.88;5103089;27;20059;-67
2022/05/05 01:13:41;;;;;;;25.55;9.10;;;;;;;25.17;69.16;98102.09;5108624;28;20070;-66
2022/05/05 01:16:24;;;;;;;21.50;9.00;;;;;;;25.22;69.47;98105.13;5096833;28;20494;-66
2022/05/05 01:19:13;;;;;;;21.63;9.93;;;;;;;25.31;71.29;98106.81;5100510;28;20051;-67
2022/05/05 01:22:00;;;;;;;28.27;9.35;;;;;;;25.39;67.95;98104.25;5099193;28;20044;-66
2022/05/05 01:30:56;;;;;;;17.15;8.88;;;;;;;25.80;68.21;98109.84;5107644;28;20688;-67
2022/05/05 01:33:38;;;;;;;22.17;9.40;;;;;;;25.89;70.70;98108.91;5108047;28;20079;-67
2022/05/05 01:36:27;;;;;;;23.55;8.80;;;;;;;25.92;70.09;98108.63;5108693;28;20105;-66
2022/05/05 01:39:09;;;;;;;22.10;9.57;;;;;;;25.91;72.43;98102.50;5107718;28;20074;-67
2022/05/05 01:41:58;;;;;;;21.67;9.85;;;;;;;25.91;69.64;98105.16;5109525;27;20494;-65
2022/05/05 01:44:47;;;;;;;19.08;9.43;;;;;;;25.89;66.58;98108.91;5109517;27;20051;-66
2022/05/05 01:47:29;;;;;;;26.70;9.75;;;;;;;25.94;67.49;98117.22;5107728;28;20056;-66
2022/05/05 01:50:18;;;;;;;24.50;8.82;;;;;;;26.07;65.93;98117.59;5099825;28;20055;-67
2022/05/05 01:53:01;;;;;;;20.42;8.57;;;;;;;26.24;66.03;98129.06;5104646;28;20580;-66
2022/05/05 01:55:57;;;;;;;18.02;9.00;;;;;;;26.31;67.55;98124.00;5059853;28;20048;-67
2022/05/05 01:58:46;;;;;;;27.33;8.82;;;;;;;26.33;68.81;98135.25;5105476;27;20054;-65
2022/05/05 02:01:35;;;;;;;26.75;9.90;;;;;;;26.57;70.21;98151.22;5080212;28;20412;-67
2022/05/05 02:04:17;;;;;;;27.60;10.77;;;;;;;26.96;64.58;98148.88;5101896;28;20093;-66
2022/05/05 02:07:06;;;;;;;44.30;12.18;;;;;;;27.18;62.81;98155.34;5108139;28;20071;-66
2022/05/05 02:09:48;;;;;;;24.25;10.23;;;;;;;27.35;60.10;98157.03;5107162;28;20047;-66
2022/05/05 02:12:38;;;;;;;24.27;10.15;;;;;;;27.50;58.79;98155.38;5107396;28;20519;-66
2022/05/05 02:15:20;;;;;;;21.83;9.82;;;;;;;27.84;62.74;98157.03;5087510;28;20071;-66
2022/05/05 02:18:20;;;;;;;26.40;9.82;;;;;;;28.09;57.18;98154.19;5073755;28;20036;-67
2022/05/05 02:21:02;;;;;;;48.70;11.77;;;;;;;28.50;63.68;98170.78;5091801;28;20071;-67
2022/05/05 02:23:51;;;;;;;21.88;9.30;;;;;;;28.77;66.59;98166.88;5100128;28;20072;-67
2022/05/05 02:26:41;;;;;;;25.52;8.75;;;;;;;28.65;60.00;98172.72;5093572;28;20113;-67
2022/05/05 02:29:30;;;;;;;22.63;8.77;;;;;;;28.90;65.89;98176.91;5079580;28;20067;-67
2022/05/05 02:32:12;;;;;;;25.70;8.65;;;;;;;28.88;59.43;98178.94;5102972;28;20055;-67
2022/05/05 02:35:01;;;;;;;20.50;8.15;;;;;;;28.93;55.84;98187.19;5103343;28;20104;-66
2022/05/05 02:40:50;;;;;;;20.15;7.32;;;;;;;29.39;55.53;98188.09;5106526;28;20042;-67
2022/05/05 02:43:32;;;;;;;17.52;6.70;;;;;;;29.49;54.85;98193.16;5100488;28;20078;-66
2022/05/05 02:46:21;;;;;;;22.02;8.05;;;;;;;29.51;54.46;98186.69;5102230;28;20048;-67
2022/05/05 02:49:03;;;;;;;19.10;8.43;;;;;;;29.44;52.45;98184.91;5100590;28;20047;-67
2022/05/05 02:51:52;;;;;;;24.02;8.52;;;;;;;29.62;56.49;98185.41;5097326;28;20615;-65
2022/05/05 02:54:55;;;;;;;17.30;7.70;;;;;;;30.09;55.65;98185.22;5096673;28;20043;-66
2022/05/05 02:57:45;;;;;;;16.42;7.93;;;;;;;30.43;57.93;98187.31;5095847;28;20408;-66
2022/05/05 03:00:27;;;;;;;21.60;7.97;;;;;;;30.18;49.93;98197.38;5084983;28;20048;-65
2022/05/05 03:03:16;;;;;;;25.23;9.52;;;;;;;30.21;48.65;98198.84;5104039;27;20116;-66
2022/05/05 03:06:05;;;;;;;19.27;8.63;;;;;;;30.48;48.84;98190.25;5087827;28;20675;-66
2022/05/05 03:08:54;;;;;;;26.52;8.70;;;;;;;30.55;47.70;98193.03;5097878;28;20047;-65
2022/05/05 03:11:43;;;;;;;23.60;8.35;;;;;;;30.71;51.90;98192.84;5105778;28;20108;-66
2022/05/05 03:14:25;;;;;;;17.58;7.90;;;;;;;30.72;49.08;98200.63;5106060;28;20055;-66
2022/05/05 03:17:14;;;;;;;18.70;7.90;;;;;;;31.09;48.93;98198.84;5086168;28;20044;-66
2022/05/05 03:20:10;;;;;;;19.45;8.13;;;;;;;30.68;47.49;98202.00;5086304;28;20060;-66
2022/05/05 03:22:45;;;;;;;17.48;7.38;;;;;;;31.17;48.36;98212.03;5100128;28;20344;-67
2022/05/05 03:25:42;;;;;;;18.85;8.35;;;;;;;31.17;48.51;98212.03;5073024;28;20048;-66
2022/05/05 03:28:32;;;;;;;19.58;8.55;;;;;;;30.86;47.11;98208.78;5093187;28;20052;-67
2022/05/05 03:31:22;;;;;;;15.13;7.55;;;;;;;31.47;48.59;98210.91;5105803;28;20040;-66
2022/05/05 03:34:05;;;;;;;14.02;7.70;;;;;;;31.22;44.22;98219.44;5095943;28;20108;-67
2022/05/05 03:36:54;;;;;;;17.60;6.88;;;;;;;31.48;45.52;98222.38;5085888;28;20109;-67
2022/05/05 03:39:36;;;;;;;16.80;6.57;;;;;;;31.69;45.76;98221.59;5098632;28;20104;-68
2022/05/05 03:42:25;;;;;;;14.93;7.15;;;;;;;32.05;42.96;98216.97;5085800;28;20070;-66
2022/05/05 03:45:08;;;;;;;19.83;7.30;;;;;;;31.93;47.43;98219.34;5101096;28;20040;-66
2022/05/05 03:47:57;;;;;;;20.85;7.25;;;;;;;31.75;47.32;98212.84;5098103;28;20458;-67
2022/05/05 03:50:39;;;;;;;18.77;7.93;;;;;;;32.14;43.77;98215.81;5106080;28;20101;-67
2022/05/05 03:53:28;;;;;;;13.57;7.72;;;;;;;32.03;42.37;98224.34;5095571;27;20121;-66
2022/05/05 03:56:16;;;;;;;18.33;7.28;;;;;;;32.08;41.74;98221.94;5068435;28;20047;-67
2022/05/05 03:59:11;;;;;;;15.68;7.05;;;;;;;32.71;44.05;98222.78;5083368;28;20653;-67
2022/05/05 04:01:46;;;;;;;21.40;7.60;;;;;;;32.56;42.99;98222.06;5105634;28;20062;-66
2022/05/05 04:04:36;;;;;;;19.00;6.95;;;;;;;32.39;42.39;98221.56;5100346;28;20105;-66
2022/05/05 04:07:18;;;;;;;17.00;7.10;;;;;;;32.71;44.05;98220.13;5085118;28;20570;-67
2022/05/05 04:10:07;;;;;;;22.60;6.88;;;;;;;33.14;42.67;98222.53;5101800;28;20039;-66
2022/05/05 04:12:57;;;;;;;23.10;7.07;;;;;;;33.25;42.69;98220.16;5089506;28;20047;-66
2022/05/05 04:15:39;;;;;;;16.88;6.90;;;;;;;33.10;41.12;98226.63;5077307;28;20044;-67
2022/05/05 04:18:28;;;;;;;14.45;6.45;;;;;;;32.97;43.00;98230.06;5084308;28;20052;-68
2022/05/05 04:21:10;;;;;;;19.02;7.78;;;;;;;33.55;41.60;98230.47;5100337;28;20055;-68
2022/05/05 04:24:05;;;;;;;18.88;7.00;;;;;;;33.70;42.24;98226.59;5105084;28;20097;-67
2022/05/05 04:26:47;;;;;;;14.70;7.40;;;;;;;32.56;42.17;98216.72;5087548;28;20040;-68
2022/05/05 04:29:36;;;;;;;21.92;6.78;;;;;;;33.66;45.27;98213.84;5105539;28;20043;-66
2022/05/05 04:32:22;;;;;;;17.20;6.70;;;;;;;33.89;40.07;98216.16;5091576;28;20127;-66
2022/05/05 04:35:12;;;;;;;20.73;6.82;;;;;;;34.20;40.42;98224.34;5100274;28;20079;-66
2022/05/05 04:37:54;;;;;;;18.23;6.85;;;;;;;33.90;40.12;98225.81;5105643;28;20478;-66
2022/05/05 04:40:43;;;;;;;17.35;6.95;;;;;;;33.71;43.24;98214.88;5084563;28;20036;-66
2022/05/05 04:43:25;;;;;;;18.10;7.00;;;;;;;33.74;39.21;98214.50;5108638;28;20043;-66
2022/05/05 04:46:14;;;;;;;18.42;6.32;;;;;;;34.09;40.35;98222.28;5090085;28;20109;-65
2022/05/05 04:49:03;;;;;;;19.20;6.90;;;;;;;34.36;40.93;98210.56;5105515;28;20044;-65
2022/05/05 04:51:45;;;;;;;17.75;7.20;;;;;;;35.10;40.29;98212.00;5104972;28;20039;-64
2022/05/05 04:54:34;;;;;;;14.50;6.03;;;;;;;34.66;42.08;98208.22;5096291;28;20039;-65
2022/05/05 04:57:22;;;;;;;18.48;6.35;;;;;;;34.72;40.89;98207.34;5103823;28;20121;-64
2022/05/05 05:00:18;;;;;;;14.07;6.60;;;;;;;35.39;39.01;98206.06;5086254;28;20047;-64
2022/05/05 05:02:53;;;;;;;19.48;6.57;;;;;;;34.92;40.23;98207.31;5105456;28;20048;-64
2022/05/05 05:05:42;;;;;;;21.33;6.47;;;;;;;34.49;38.64;98202.50;5091186;28;20616;-66
2022/05/05 05:08:31;;;;;;;15.40;6.22;;;;;;;35.04;39.76;98202.94;5093923;28;20105;-66
2022/05/05 05:11:13;;;;;;;19.00;7.13;;;;;;;34.88;40.39;98192.72;5087896;28;20044;-66
2022/05/05 05:14:02;;;;;;;17.95;6.57;;;;;;;34.62;37.86;98206.19;5102552;28;20071;-67
2022/05/05 05:16:51;;;;;;;13.95;7.20;;;;;;;35.04;41.83;98194.91;5104157;28;20066;-65
2022/05/05 05:19:40;;;;;;;29.38;8.45;;;;;;;35.52;39.30;98186.41;5098070;28;20047;-63
2022/05/05 05:22:23;;;;;;;15.32;7.65;;;;;;;35.15;41.53;98191.53;5092393;28;20049;-63
2022/05/05 05:25:12;;;;;;;19.83;7.68;;;;;;;35.73;43.26;98186.06;5097300;28;20374;-65
2022/05/05 05:28:08;;;;;;;21.73;7.85;;;;;;;35.44;40.51;98182.09;5093131;28;20055;-65
2022/05/05 05:30:46;;;;;;;26.92;8.55;;;;;;;34.86;39.55;98181.41;5097141;28;20047;-66
2022/05/05 05:33:36;;;;;;;18.10;8.32;;;;;;;35.36;38.94;98186.94;5048377;28;20140;-66
2022/05/05 05:36:25;;;;;;;19.30;8.30;;;;;;;34.86;37.65;98176.06;5092399;28;20485;-64
2022/05/05 05:39:14;;;;;;;26.20;9.02;;;;;;;34.45;36.22;98174.53;5102932;28;20068;-65
2022/05/05 05:41:57;;;;;;;24.58;8.73;;;;;;;35.21;39.88;98174.59;5104427;28;20044;-65
2022/05/05 05:44:52;;;;;;;20.83;8.13;;;;;;;35.49;37.21;98168.06;5098060;28;20056;-64
2022/05/05 05:47:28;;;;;;;24.63;8.85;;;;;;;35.77;40.63;98168.47;5084820;27;20043;-64
2022/05/05 05:50:18;;;;;;;18.60;8.60;;;;;;;35.52;40.27;98167.66;5097261;28;20104;-64
2022/05/05 05:53:00;;;;;;;26.73;8.98;;;;;;;35.74;39.64;98160.91;5079677;28;20783;-64
2022/05/05 05:55:49;;;;;;;20.55;8.30;;;;;;;35.28;36.67;98153.97;5102273;28;20148;-65
2022/05/05 05:58:31;;;;;;;25.17;8.40;;;;;;;34.99;38.43;98151.88;5089872;27;20131;-65
2022/05/05 06:01:20;;;;;;;25.55;8.02;;;;;;;35.12;39.93;98151.78;5058376;28;20133;-64
2022/05/05 06:04:02;;;;;;;21.30;7.90;;;;;;;34.74;40.46;98135.72;5075766;28;20089;-63
2022/05/05 06:06:51;;;;;;;21.98;8.00;;;;;;;35.65;39.24;98140.72;5080113;28;20429;-65
2022/05/05 06:09:33;;;;;;;28.55;9.15;;;;;;;35.36;39.07;98144.06;5077102;28;20532;-64
2022/05/05 06:12:28;;;;;;;27.80;7.50;;;;;;;35.33;40.19;98137.28;5077090;28;20040;-63
2022/05/05 06:15:04;;;;;;;19.70;7.45;;;;;;;35.33;38.41;98139.13;5085835;28;20527;-64
2022/05/05 06:17:54;;;;;;;27.98;8.27;;;;;;;35.28;37.82;98137.13;5066377;28;20052;-63
2022/05/05 06:20:36;;;;;;;26.30;7.63;;;;;;;34.71;35.57;98130.78;5067594;28;20044;-65
2022/05/05 06:23:25;;;;;;;26.50;7.15;;;;;;;35.11;38.31;98125.25;5081146;28;20680;-64
2022/05/05 06:26:07;;;;;;;18.40;5.93;;;;;;;35.38;34.56;98128.56;5074456;28;20781;-63
2022/05/05 06:28:56;;;;;;;22.42;7.50;;;;;;;35.41;39.20;98120.91;5079885;28;20105;-64
2022/05/05 06:31:39;;;;;;;24.90;6.97;;;;;;;35.32;36.93;98114.19;5080110;28;20055;-64
2022/05/05 06:34:28;;;;;;;26.05;7.10;;;;;;;35.01;36.68;98116.84;5073138;28;20056;-64
2022/05/05 06:37:12;;;;;;;20.70;7.00;;;;;;;35.36;40.51;98111.91;5075384;28;20044;-63
2022/05/05 06:40:01;;;;;;;16.92;6.13;;;;;;;35.17;35.82;98119.84;5074087;28;20055;-64
2022/05/05 06:42:50;;;;;;;17.98;5.80;;;;;;;35.56;39.83;98109.88;5068897;28;20051;-64
2022/05/05 06:45:32;;;;;;;23.02;6.35;;;;;;;35.24;35.84;98107.25;5079004;28;20477;-62
2022/05/05 06:48:21;;;;;;;18.05;8.32;;;;;;;34.74;37.32;98103.59;5066686;28;20458;-65
2022/05/05 06:51:09;;;;;;;27.73;8.55;;;;;;;34.64;39.02;98097.06;5074784;28;20044;-66
2022/05/05 06:53:58;;;;;;;32.67;6.97;;;;;;;35.06;37.26;98096.41;5056044;28;20048;-66
2022/05/05 06:56:40;;;;;;;21.08;6.35;;;;;;;35.18;35.54;98086.66;5078262;28;20048;-64
2022/05/05 06:59:36;;;;;;;24.60;6.93;;;;;;;35.48;37.54;98086.03;5065697;28;20065;-65
2022/05/05 07:02:25;;;;;;;23.15;6.93;;;;;;;35.52;35.82;98089.94;5083480;28;20044;-65
2022/05/05 07:05:23;;;;;;;22.50;6.88;;;;;;;35.54;36.59;98088.63;5065310;28;20058;-64
2022/05/05 07:08:06;;;;;;;23.50;7.38;;;;;;;35.42;36.68;98078.88;5083598;28;20051;-66
2022/05/05 07:10:57;;;;;;;22.33;7.53;;;;;;;35.66;39.51;98080.72;5083770;28;20467;-65
2022/05/05 07:13:39;;;;;;;18.25;6.53;;;;;;;35.70;36.08;98076.53;5087044;28;20051;-64
2022/05/05 07:16:28;;;;;;;25.55;7.05;;;;;;;35.45;37.83;98070.38;5083600;28;20476;-65
2022/05/05 07:19:17;;;;;;;19.35;6.25;;;;;;;35.45;34.60;98062.34;5083344;28;20040;-63
2022/05/05 07:21:59;;;;;;;23.67;6.50;;;;;;;35.51;37.25;98066.84;5083346;28;20479;-64
2022/05/05 07:24:48;;;;;;;19.40;7.38;;;;;;;35.57;38.82;98065.94;5083084;28;20067;-64
2022/05/05 07:27:31;;;;;;;18.50;7.07;;;;;;;35.72;38.33;98063.75;5063094;28;20052;-65
2022/05/05 07:30:20;;;;;;;18.40;7.22;;;;;;;35.61;35.76;98051.03;5082901;28;20044;-63
2022/05/05 07:33:02;;;;;;;23.33;7.25;;;;;;;35.67;32.96;98050.19;5084032;28;20646;-64
2022/05/05 07:35:47;;;;;;;26.75;7.22;;;;;;;35.64;37.74;98039.88;5084644;28;20060;-65
2022/05/05 07:38:37;;;;;;;20.17;6.57;;;;;;;35.47;38.09;98041.50;5052020;28;20053;-66
2022/05/05 07:41:26;;;;;;;24.77;7.50;;;;;;;35.48;35.64;98032.41;5084984;28;20070;-67
2022/05/05 07:44:08;;;;;;;20.35;8.25;;;;;;;35.52;36.46;98029.06;5087350;28;20063;-68
2022/05/05 07:46:58;;;;;;;30.08;8.68;;;;;;;35.33;35.81;98027.41;5086635;28;20113;-69
2022/05/05 07:49:40;;;;;;;20.48;9.15;;;;;;;35.46;38.90;98015.72;5065650;28;20048;-66
2022/05/05 07:52:30;;;;;;;19.33;8.38;;;;;;;35.34;38.33;98025.56;5075133;28;20109;-66
2022/05/05 07:55:12;;;;;;;29.40;9.70;;;;;;;35.05;38.89;98011.72;5085920;28;20044;-69
2022/05/05 07:58:02;;;;;;;22.02;9.57;;;;;;;35.29;40.01;98010.94;5069127;28;20040;-66
2022/05/05 08:00:51;;;;;;;24.83;9.98;;;;;;;35.31;35.64;98016.09;5084962;28;20044;-65
2022/05/05 08:03:46;;;;;;;20.52;9.90;;;;;;;35.33;38.43;98010.50;5100821;28;20097;-66
2022/05/05 08:06:35;;;;;;;20.60;8.88;;;;;;;35.40;38.86;98006.72;5093010;28;20501;-65
2022/05/05 08:09:24;;;;;;;22.60;9.35;;;;;;;35.19;36.97;98002.56;5091314;28;20051;-63
2022/05/05 08:12:27;;;;;;;27.88;10.50;;;;;;;35.15;38.38;97992.50;5079842;28;20040;-65
2022/05/05 08:15:19;;;;;;;25.75;10.05;;;;;;;35.24;39.77;97991.22;5086839;28;20067;-65
2022/05/05 08:18:08;;;;;;;19.33;9.88;;;;;;;35.23;39.18;97987.72;5102670;28;20051;-65
2022/05/05 08:20:50;;;;;;;24.58;9.70;;;;;;;35.15;38.67;97985.28;5104822;28;20122;-64
2022/05/05 08:23:39;;;;;;;22.25;10.02;;;;;;;35.12;37.53;97983.03;5103911;28;20105;-64
2022/05/05 08:29:29;;;;;;;26.33;11.65;;;;;;;35.01;38.85;97978.41;5101640;28;20100;-64
2022/05/05 08:32:18;;;;;;;25.33;9.85;;;;;;;35.05;38.96;97970.75;5086484;28;20398;-65
2022/05/05 08:35:08;;;;;;;21.42;9.55;;;;;;;35.04;37.83;97966.44;5086315;28;20044;-64
2022/05/05 08:37:50;;;;;;;19.70;9.77;;;;;;;35.10;40.34;97962.88;5088677;28;20059;-65
2022/05/05 08:40:41;;;;;;;23.30;10.02;;;;;;;35.04;36.74;97953.06;5087059;28;20070;-65
2022/05/05 08:43:25;;;;;;;23.23;9.38;;;;;;;34.89;39.18;97950.69;5106169;28;20043;-65
2022/05/05 08:46:35;;;;;;;18.73;9.00;;;;;;;34.53;40.90;97941.47;5096110;28;20101;-65
2022/05/05 08:49:30;;;;;;;21.27;9.07;;;;;;;34.33;42.70;97940.78;5089143;28;20292;-65
2022/05/05 08:52:20;;;;;;;21.38;8.95;;;;;;;34.04;41.62;97935.97;5095727;28;20550;-64
2022/05/05 08:55:10;;;;;;;18.00;8.55;;;;;;;33.77;44.29;97930.75;5097675;28;20060;-65
2022/05/05 08:58:01;;;;;;;19.75;9.00;;;;;;;33.70;38.24;97923.75;5096309;28;20051;-65
2022/05/05 09:00:44;;;;;;;23.55;9.65;;;;;;;33.70;44.06;97921.91;5106219;28;20094;-65
2022/05/05 09:03:39;;;;;;;19.55;8.70;;;;;;;33.58;44.35;97923.59;5097554;28;20044;-65
2022/05/05 09:06:42;;;;;;;25.20;7.75;;;;;;;33.74;40.54;97912.47;5086325;28;20047;-64
2022/05/05 09:09:33;;;;;;;22.48;9.00;;;;;;;33.72;39.08;97917.22;5085505;28;20056;-65
2022/05/05 09:12:20;;;;;;;16.73;7.70;;;;;;;33.54;40.97;97919.69;5076423;28;20574;-64
2022/05/05 09:15:16;;;;;;;18.15;7.93;;;;;;;33.57;39.44;97911.28;5048652;28;20052;-65
2022/05/05 09:18:18;;;;;;;16.80;7.47;;;;;;;33.45;42.20;97899.59;5075374;28;20040;-64
2022/05/05 09:21:13;;;;;;;25.77;9.40;;;;;;;33.32;43.26;97900.47;5077103;28;20078;-64
2022/05/05 09:27:23;;;;;;;24.17;8.05;;;;;;;33.45;43.10;97891.56;5078180;28;20048;-66
2022/05/05 09:30:13;;;;;;;20.48;8.57;;;;;;;33.52;41.54;97892.41;5085913;28;20067;-65
2022/05/05 09:33:03;;;;;;;20.95;8.32;;;;;;;33.31;40.42;97893.47;5087843;28;20036;-65
2022/05/05 09:35:55;;;;;;;29.73;8.63;;;;;;;33.50;37.62;97880.28;5086208;28;20048;-65
2022/05/05 09:39:15;;;;;;;23.60;9.15;;;;;;;33.59;36.53;97887.03;5068079;28;20051;-65
2022/05/05 09:41:58;;;;;;;23.85;8.50;;;;;;;33.76;40.41;97877.53;5060800;28;20051;-66
2022/05/05 09:44:53;;;;;;;29.63;9.38;;;;;;;33.86;39.60;97869.03;5065107;28;20134;-62
2022/05/05 09:47:41;;;;;;;17.35;9.13;;;;;;;34.22;35.10;97876.44;5078119;28;20055;-64
2022/05/05 09:50:33;;;;;;;23.08;10.68;;;;;;;34.13;39.23;97859.81;5067297;28;20052;-64
2022/05/05 09:59:30;;;;;;;23.02;9.13;;;;;;;34.15;40.39;97863.09;5075669;28;20052;-63
2022/05/05 10:05:56;;;;;;;27.77;10.23;;;;;;;34.10;38.82;97846.88;5033058;28;20750;-64
2022/05/05 10:08:46;;;;;;;21.42;9.80;;;;;;;34.06;38.60;97837.66;5079052;28;20059;-64
2022/05/05 10:11:36;;;;;;;27.23;11.27;;;;;;;34.09;37.42;97839.88;5075641;28;20118;-66
2022/05/05 10:14:21;;;;;;;24.90;10.05;;;;;;;34.04;39.17;97835.19;5077823;28;20515;-66
2022/05/05 10:17:11;;;;;;;22.45;10.18;;;;;;;34.00;39.08;97828.66;5073353;28;20056;-65
2022/05/05 10:19:55;;;;;;;30.08;10.27;;;;;;;34.03;37.89;97825.53;5073411;28;20476;-65
2022/05/05 10:22:55;;;;;;;26.40;10.35;;;;;;;34.04;37.45;97818.31;5079310;28;20113;-65
2022/05/05 10:25:39;;;;;;;26.88;10.38;;;;;;;33.99;39.45;97808.28;5081672;28;20040;-64
2022/05/05 10:28:49;;;;;;;28.85;11.35;;;;;;;34.00;39.73;97803.75;5084013;28;20135;-64
2022/05/05 10:31:33;;;;;;;37.38;10.07;;;;;;;34.00;40.38;97809.13;5079940;28;20072;-64
2022/05/05 10:34:26;;;;;;;27.10;10.88;;;;;;;33.99;41.76;97800.28;5056810;28;20426;-65
2022/05/05 10:37:18;;;;;;;22.88;9.55;;;;;;;33.97;38.59;97791.63;5079580;28;20767;-68
2022/05/05 10:40:13;;;;;;;24.50;10.02;;;;;;;33.98;38.93;97800.47;5079617;28;20040;-66
2022/05/05 10:43:09;;;;;;;29.48;11.18;;;;;;;33.96;38.61;97791.84;5069492;28;20356;-65
2022/05/05 10:45:58;;;;;;;22.25;10.48;;;;;;;33.97;40.54;97786.28;5076886;28;20052;-66
2022/05/05 10:48:40;;;;;;;28.30;10.77;;;;;;;33.97;38.41;97782.81;5074819;28;20052;-65
2022/05/05 10:51:29;;;;;;;19.90;9.88;;;;;;;33.94;40.38;97784.03;5073810;28;20055;-65
2022/05/05 10:54:22;;;;;;;29.90;10.45;;;;;;;33.85;37.26;97785.34;5077458;28;20056;-64
2022/05/05 10:57:30;;;;;;;28.23;10.55;;;;;;;33.68;41.32;97771.66;5084239;28;20064;-67
2022/05/05 11:00:19;;;;;;;24.55;9.32;;;;;;;33.53;37.83;97772.97;5081904;28;20088;-66
2022/05/05 11:03:12;;;;;;;17.05;9.35;;;;;;;33.51;43.01;97762.50;5072315;28;20579;-66
2022/05/05 11:06:28;;;;;;;22.35;8.88;;;;;;;33.75;38.60;97763.63;5051126;28;20057;-66
2022/05/05 11:09:34;;;;;;;39.95;10.00;;;;;;;33.79;38.44;97762.16;5076427;28;20044;-65
2022/05/05 11:12:25;;;;;;;25.95;10.98;;;;;;;33.78;41.51;97755.97;5085268;28;20063;-66
2022/05/05 11:21:33;;;;;;;24.52;10.57;;;;;;;33.64;39.20;97754.41;5079451;28;20048;-66
2022/05/05 11:24:34;;;;;;;18.30;8.55;;;;;;;33.49;40.78;97751.22;5081869;28;20172;-66
2022/05/05 11:27:17;;;;;;;20.95;8.40;;;;;;;33.55;38.61;97750.34;5064039;28;20064;-67
2022/05/05 11:30:08;;;;;;;22.95;9.02;;;;;;;33.56;36.96;97754.66;5080145;28;20519;-66
2022/05/05 11:32:50;;;;;;;31.55;9.90;;;;;;;33.64;36.17;97751.72;5068167;28;20135;-65
2022/05/05 11:36:02;;;;;;;27.60;10.25;;;;;;;33.77;35.90;97758.88;5066981;28;20044;-66
2022/05/05 11:38:51;;;;;;;22.77;9.70;;;;;;;33.87;37.15;97755.72;5083710;28;20132;-67
2022/05/05 11:41:41;;;;;;;21.13;9.15;;;;;;;33.77;36.79;97762.34;5080292;28;20113;-66
2022/05/05 11:44:24;;;;;;;27.77;9.90;;;;;;;33.72;38.32;97761.34;5080396;28;20048;-65
2022/05/05 11:47:19;;;;;;;29.17;9.82;;;;;;;33.68;37.08;97758.31;5073452;28;20044;-65
2022/05/05 11:50:17;;;;;;;29.58;10.65;;;;;;;33.73;36.86;97752.31;5074340;28;20148;-66
2022/05/05 11:52:52;;;;;;;25.63;8.95;;;;;;;33.70;38.22;97758.88;5080562;28;20344;-66
2022/05/05 11:55:44;;;;;;;29.75;9.80;;;;;;;33.63;36.43;97758.09;5077554;28;20495;-66
2022/05/05 12:01:38;;;;;;;21.67;9.38;;;;;;;33.63;36.68;97747.41;5057236;28;20056;-64
2022/05/05 12:04:22;;;;;;;31.83;9.82;;;;;;;33.71;36.06;97747.16;5063714;28;20135;-64
2022/05/05 12:07:29;;;;;;;19.48;8.63;;;;;;;33.76;35.42;97743.88;5070099;28;20560;-65
2022/05/05 12:10:26;;;;;;;24.10;8.20;;;;;;;33.74;35.22;97754.78;5077914;28;20076;-63
2022/05/05 12:13:22;;;;;;;24.48;9.63;;;;;;;33.79;34.72;97744.25;5052235;28;20072;-63
2022/05/05 12:16:11;;;;;;;28.00;9.40;;;;;;;33.92;34.56;97748.72;5053839;28;20087;-63
2022/05/05 12:19:01;;;;;;;27.75;9.15;;;;;;;33.84;35.15;97746.31;5056755;28;20074;-64
2022/05/05 12:21:57;;;;;;;25.88;9.93;;;;;;;33.72;35.63;97746.16;5056877;28;20048;-66
2022/05/05 12:24:41;;;;;;;26.90;8.85;;;;;;;33.65;36.19;97749.88;5045322;28;20056;-65
2022/05/05 12:27:30;;;;;;;32.28;8.65;;;;;;;33.58;35.62;97754.44;5061310;28;20101;-65
2022/05/05 12:30:40;;;;;;;38.85;8.93;;;;;;;33.54;36.91;97747.88;5054364;28;20624;-64
2022/05/05 12:33:38;;;;;;;19.27;8.90;;;;;;;33.36;36.44;97751.28;5057525;28;20111;-65
2022/05/05 12:36:21;;;;;;;26.83;8.85;;;;;;;33.25;38.50;97754.63;5059553;28;20717;-65
2022/05/05 12:39:11;;;;;;;27.13;8.93;;;;;;;33.15;37.69;97755.03;5059940;28;20056;-65
2022/05/05 12:42:04;;;;;;;27.05;8.40;;;;;;;33.14;37.34;97752.56;5060155;28;20064;-65
2022/05/05 12:45:00;;;;;;;27.02;8.50;;;;;;;33.08;37.72;97758.78;5055542;28;20052;-66
2022/05/05 12:47:46;;;;;;;28.83;9.80;;;;;;;33.02;36.13;97760.44;5059584;28;20044;-65
2022/05/05 12:50:35;;;;;;;22.60;9.27;;;;;;;33.06;36.65;97767.00;5052683;28;20078;-64
2022/05/05 12:59:47;;;;;;;35.20;12.18;;;;;;;32.79;37.32;97760.94;5066837;28;21550;-65
2022/05/05 13:02:30;;;;;;;24.70;10.32;;;;;;;32.67;41.01;97763.38;5061761;28;20048;-64
2022/05/05 13:05:25;;;;;;;24.33;9.55;;;;;;;32.56;40.52;97760.53;5065405;28;20349;-65
2022/05/05 13:08:07;;;;;;;33.83;10.60;;;;;;;32.43;41.62;97760.53;5063874;28;20123;-64
2022/05/05 13:10:56;;;;;;;20.88;9.93;;;;;;;32.36;40.71;97765.06;5057067;28;20057;-65
2022/05/05 13:13:52;;;;;;;23.77;10.05;;;;;;;32.29;38.68;97759.75;5087312;28;20101;-65
2022/05/05 13:16:42;;;;;;;23.38;9.98;;;;;;;32.16;42.78;97754.44;5072734;28;20036;-64
2022/05/05 13:19:31;;;;;;;25.33;9.38;;;;;;;32.07;43.04;97766.28;5087091;28;20120;-64
2022/05/05 13:22:14;;;;;;;42.80;11.10;;;;;;;32.01;40.18;97764.44;5088598;28;20048;-65
2022/05/05 13:25:03;;;;;;;35.22;10.77;;;;;;;31.97;42.47;97758.69;5087453;28;20044;-65
2022/05/05 13:27:45;;;;;;;25.75;10.13;;;;;;;31.92;42.89;97763.81;5066467;28;20086;-64
2022/05/05 13:30:34;;;;;;;24.90;10.10;;;;;;;31.83;43.63;97767.72;5079699;28;20044;-63
2022/05/05 13:33:22;;;;;;;25.85;11.00;;;;;;;31.72;43.40;97768.28;5086447;28;20782;-66
2022/05/05 13:36:13;;;;;;;30.65;10.45;;;;;;;31.67;44.50;97771.56;5087861;28;20224;-65
2022/05/05 13:39:02;;;;;;;30.45;11.27;;;;;;;31.60;43.87;97772.56;5087177;28;20105;-64
2022/05/05 13:41:49;;;;;;;20.98;11.00;;;;;;;31.51;45.02;97775.41;5084964;28;20036;-65
2022/05/05 13:44:38;;;;;;;26.65;11.07;;;;;;;31.43;45.74;97767.59;5078751;28;20109;-66
2022/05/05 13:47:20;;;;;;;33.00;12.10;;;;;;;31.34;46.83;97776.78;5079871;28;20062;-65